sensor_id;sensor_type;location;lat;lon;timestamp;pressure;altitude;pressure_sealevel;temperature;humidity
21395;BME280;10858;42.714;23.180;2023-05-09T00:01:41;94676.59;;;12.44;90.71
21395;BME280;10858;42.714;23.180;2023-05-09T00:04:08;94674.75;;;12.45;90.74
21395;BME280;10858;42.714;23.180;2023-05-09T00:06:34;94671.69;;;12.40;91.08
21395;BME280;10858;42.714;23.180;2023-05-09T00:09:01;94667.78;;;12.44;90.97
21395;BME280;10858;42.714;23.180;2023-05-09T00:11:27;94668.75;;;12.52;90.47
21395;BME280;10858;42.714;23.180;2023-05-09T00:13:53;94662.72;;;12.60;90.41
21395;BME280;10858;42.714;23.180;2023-05-09T00:16:19;94666.94;;;12.62;90.05
21395;BME280;10858;42.714;23.180;2023-05-09T00:18:49;94663.97;;;12.75;90.01
21395;BME280;10858;42.714;23.180;2023-05-09T00:21:15;94658.78;;;12.83;89.98
21395;BME280;10858;42.714;23.180;2023-05-09T00:23:42;94660.47;;;12.84;90.24
21395;BME280;10858;42.714;23.180;2023-05-09T00:26:09;94662.28;;;12.93;90.50
21395;BME280;10858;42.714;23.180;2023-05-09T00:28:35;94652.03;;;12.98;90.75
21395;BME280;10858;42.714;23.180;2023-05-09T00:31:03;94660.31;;;13.05;91.03
21395;BME280;10858;42.714;23.180;2023-05-09T00:33:29;94650.63;;;13.13;91.13
21395;BME280;10858;42.714;23.180;2023-05-09T00:35:55;94655.25;;;13.11;90.86
21395;BME280;10858;42.714;23.180;2023-05-09T00:38:22;94660.31;;;12.86;90.50
21395;BME280;10858;42.714;23.180;2023-05-09T00:40:48;94661.63;;;12.62;91.00
21395;BME280;10858;42.714;23.180;2023-05-09T00:43:14;94658.66;;;12.56;91.71
21395;BME280;10858;42.714;23.180;2023-05-09T00:45:42;94654.88;;;12.68;90.97
21395;BME280;10858;42.714;23.180;2023-05-09T00:48:08;94662.13;;;12.85;91.03
21395;BME280;10858;42.714;23.180;2023-05-09T00:50:35;94662.84;;;12.87;90.47
21395;BME280;10858;42.714;23.180;2023-05-09T00:53:03;94659.88;;;13.00;89.14
21395;BME280;10858;42.714;23.180;2023-05-09T00:55:29;94661.00;;;13.16;88.57
21395;BME280;10858;42.714;23.180;2023-05-09T00:57:56;94661.59;;;13.10;88.29
21395;BME280;10858;42.714;23.180;2023-05-09T01:00:22;94664.94;;;12.93;89.51
21395;BME280;10858;42.714;23.180;2023-05-09T01:02:52;94658.63;;;12.94;89.53
21395;BME280;10858;42.714;23.180;2023-05-09T01:05:18;94659.50;;;13.04;89.14
21395;BME280;10858;42.714;23.180;2023-05-09T01:08:00;94652.31;;;12.95;89.58
21395;BME280;10858;42.714;23.180;2023-05-09T01:10:35;94650.94;;;13.10;89.05
21395;BME280;10858;42.714;23.180;2023-05-09T01:13:13;94656.09;;;13.12;88.64
21395;BME280;10858;42.714;23.180;2023-05-09T01:15:45;94659.31;;;13.15;88.44
21395;BME280;10858;42.714;23.180;2023-05-09T01:18:16;94657.78;;;12.94;88.22
21395;BME280;10858;42.714;23.180;2023-05-09T01:20:56;94662.72;;;12.69;89.03
21395;BME280;10858;42.714;23.180;2023-05-09T01:31:40;94663.50;;;12.13;89.70
21395;BME280;10858;42.714;23.180;2023-05-09T01:34:10;94664.50;;;12.02;89.91
21395;BME280;10858;42.714;23.180;2023-05-09T01:36:39;94664.06;;;11.97;89.88
21395;BME280;10858;42.714;23.180;2023-05-09T01:39:11;94660.84;;;11.93;89.79
21395;BME280;10858;42.714;23.180;2023-05-09T01:41:37;94670.06;;;11.99;90.07
21395;BME280;10858;42.714;23.180;2023-05-09T01:44:07;94677.63;;;11.94;89.79
21395;BME280;10858;42.714;23.180;2023-05-09T01:46:36;94680.94;;;11.86;90.18
21395;BME280;10858;42.714;23.180;2023-05-09T01:49:03;94670.44;;;11.75;91.06
21395;BME280;10858;42.714;23.180;2023-05-09T01:51:31;94671.31;;;11.95;91.17
21395;BME280;10858;42.714;23.180;2023-05-09T01:54:00;94675.41;;;12.09;90.48
21395;BME280;10858;42.714;23.180;2023-05-09T01:56:28;94672.50;;;12.12;90.80
21395;BME280;10858;42.714;23.180;2023-05-09T01:58:56;94679.94;;;12.37;90.38
21395;BME280;10858;42.714;23.180;2023-05-09T02:01:24;94678.25;;;12.36;90.71
21395;BME280;10858;42.714;23.180;2023-05-09T02:03:51;94668.31;;;12.57;90.14
21395;BME280;10858;42.714;23.180;2023-05-09T02:06:21;94675.03;;;12.51;90.26
21395;BME280;10858;42.714;23.180;2023-05-09T02:08:49;94674.06;;;12.43;90.58
21395;BME280;10858;42.714;23.180;2023-05-09T02:11:16;94676.16;;;12.49;90.50
21395;BME280;10858;42.714;23.180;2023-05-09T02:13:42;94674.50;;;12.48;90.76
21395;BME280;10858;42.714;23.180;2023-05-09T02:16:09;94667.06;;;12.51;90.40
21395;BME280;10858;42.714;23.180;2023-05-09T02:18:37;94667.91;;;12.52;90.03
21395;BME280;10858;42.714;23.180;2023-05-09T02:21:03;94661.19;;;12.48;89.92
21395;BME280;10858;42.714;23.180;2023-05-09T02:23:30;94664.81;;;12.47;89.95
21395;BME280;10858;42.714;23.180;2023-05-09T02:25:56;94669.03;;;12.49;90.61
21395;BME280;10858;42.714;23.180;2023-05-09T02:28:23;94672.38;;;12.61;90.23
21395;BME280;10858;42.714;23.180;2023-05-09T02:30:51;94668.91;;;12.60;90.07
21395;BME280;10858;42.714;23.180;2023-05-09T02:33:18;94670.28;;;12.55;90.43
21395;BME280;10858;42.714;23.180;2023-05-09T02:35:45;94677.13;;;12.67;90.24
21395;BME280;10858;42.714;23.180;2023-05-09T02:38:12;94672.94;;;12.74;90.16
21395;BME280;10858;42.714;23.180;2023-05-09T02:40:40;94670.41;;;12.82;89.67
21395;BME280;10858;42.714;23.180;2023-05-09T02:43:07;94664.66;;;12.77;89.56
21395;BME280;10858;42.714;23.180;2023-05-09T02:45:33;94680.25;;;12.72;89.70
21395;BME280;10858;42.714;23.180;2023-05-09T02:47:59;94680.63;;;12.77;89.67
21395;BME280;10858;42.714;23.180;2023-05-09T02:50:25;94671.25;;;12.73;89.59
21395;BME280;10858;42.714;23.180;2023-05-09T02:52:52;94667.63;;;12.64;89.92
21395;BME280;10858;42.714;23.180;2023-05-09T02:55:18;94668.91;;;12.60;90.27
21395;BME280;10858;42.714;23.180;2023-05-09T02:57:44;94671.56;;;12.60;90.73
21395;BME280;10858;42.714;23.180;2023-05-09T03:00:11;94676.31;;;12.76;90.26
21395;BME280;10858;42.714;23.180;2023-05-09T03:02:38;94675.63;;;12.74;89.95
21395;BME280;10858;42.714;23.180;2023-05-09T03:05:04;94671.81;;;12.67;90.06
21395;BME280;10858;42.714;23.180;2023-05-09T03:07:30;94674.06;;;12.62;90.27
21395;BME280;10858;42.714;23.180;2023-05-09T03:09:56;94680.94;;;12.64;90.48
21395;BME280;10858;42.714;23.180;2023-05-09T03:12:23;94676.72;;;12.71;90.23
21395;BME280;10858;42.714;23.180;2023-05-09T03:14:49;94684.56;;;12.73;89.81
21395;BME280;10858;42.714;23.180;2023-05-09T03:17:15;94686.25;;;12.74;89.75
21395;BME280;10858;42.714;23.180;2023-05-09T03:19:46;94690.88;;;12.72;89.83
21395;BME280;10858;42.714;23.180;2023-05-09T03:22:13;94699.97;;;12.69;89.42
21395;BME280;10858;42.714;23.180;2023-05-09T03:24:39;94701.94;;;12.67;89.44
21395;BME280;10858;42.714;23.180;2023-05-09T03:27:05;94698.56;;;12.75;89.68
21395;BME280;10858;42.714;23.180;2023-05-09T03:29:32;94700.25;;;12.86;89.70
21395;BME280;10858;42.714;23.180;2023-05-09T03:31:58;94704.44;;;12.98;89.16
21395;BME280;10858;42.714;23.180;2023-05-09T03:34:24;94709.34;;;12.93;89.41
21395;BME280;10858;42.714;23.180;2023-05-09T03:36:50;94700.13;;;12.87;90.13
21395;BME280;10858;42.714;23.180;2023-05-09T03:39:16;94701.38;;;13.02;89.38
21395;BME280;10858;42.714;23.180;2023-05-09T03:41:43;94710.66;;;13.08;89.46
21395;BME280;10858;42.714;23.180;2023-05-09T03:44:09;94710.19;;;13.31;89.40
21395;BME280;10858;42.714;23.180;2023-05-09T03:46:35;94714.09;;;13.37;88.95
21395;BME280;10858;42.714;23.180;2023-05-09T03:49:01;94712.00;;;13.40;88.86
21395;BME280;10858;42.714;23.180;2023-05-09T03:51:29;94718.94;;;13.60;88.61
21395;BME280;10858;42.714;23.180;2023-05-09T03:53:55;94712.72;;;13.70;87.97
21395;BME280;10858;42.714;23.180;2023-05-09T03:56:21;94716.97;;;13.62;88.53
21395;BME280;10858;42.714;23.180;2023-05-09T03:58:48;94715.69;;;13.20;90.27
21395;BME280;10858;42.714;23.180;2023-05-09T04:01:14;94714.25;;;13.26;90.35
21395;BME280;10858;42.714;23.180;2023-05-09T04:03:40;94706.38;;;13.43;89.57
21395;BME280;10858;42.714;23.180;2023-05-09T04:06:07;94713.66;;;13.41;89.69
21395;BME280;10858;42.714;23.180;2023-05-09T04:08:33;94713.63;;;13.60;89.44
21395;BME280;10858;42.714;23.180;2023-05-09T04:11:00;94723.72;;;13.67;87.83
21395;BME280;10858;42.714;23.180;2023-05-09T04:13:26;94711.97;;;13.87;87.29
21395;BME280;10858;42.714;23.180;2023-05-09T04:15:54;94718.81;;;13.99;86.90
21395;BME280;10858;42.714;23.180;2023-05-09T04:18:20;94716.38;;;14.05;86.35
21395;BME280;10858;42.714;23.180;2023-05-09T04:20:47;94719.38;;;14.20;85.36
21395;BME280;10858;42.714;23.180;2023-05-09T04:23:13;94724.03;;;14.45;84.68
21395;BME280;10858;42.714;23.180;2023-05-09T04:25:39;94723.13;;;14.27;84.26
21395;BME280;10858;42.714;23.180;2023-05-09T04:28:05;94722.09;;;14.65;83.96
21395;BME280;10858;42.714;23.180;2023-05-09T04:30:31;94713.69;;;14.60;82.71
21395;BME280;10858;42.714;23.180;2023-05-09T04:32:58;94718.13;;;14.69;82.41
21395;BME280;10858;42.714;23.180;2023-05-09T04:35:24;94726.75;;;14.63;82.58
21395;BME280;10858;42.714;23.180;2023-05-09T04:37:51;94730.13;;;14.82;82.07
21395;BME280;10858;42.714;23.180;2023-05-09T04:40:17;94725.13;;;14.87;82.10
21395;BME280;10858;42.714;23.180;2023-05-09T04:42:43;94727.97;;;15.03;80.88
21395;BME280;10858;42.714;23.180;2023-05-09T04:45:10;94729.41;;;15.33;80.27
21395;BME280;10858;42.714;23.180;2023-05-09T04:47:37;94721.53;;;15.31;79.72
21395;BME280;10858;42.714;23.180;2023-05-09T04:50:03;94730.03;;;15.27;79.86
21395;BME280;10858;42.714;23.180;2023-05-09T04:52:30;94731.72;;;15.10;80.01
21395;BME280;10858;42.714;23.180;2023-05-09T04:54:56;94733.91;;;14.62;80.84
21395;BME280;10858;42.714;23.180;2023-05-09T04:57:22;94730.31;;;14.71;81.44
21395;BME280;10858;42.714;23.180;2023-05-09T04:59:49;94726.91;;;14.79;79.92
21395;BME280;10858;42.714;23.180;2023-05-09T05:02:16;94738.25;;;14.63;79.15
21395;BME280;10858;42.714;23.180;2023-05-09T05:04:42;94736.16;;;14.67;79.32
21395;BME280;10858;42.714;23.180;2023-05-09T05:07:08;94730.03;;;14.92;77.89
21395;BME280;10858;42.714;23.180;2023-05-09T05:09:34;94738.66;;;14.86;77.31
21395;BME280;10858;42.714;23.180;2023-05-09T05:12:00;94726.72;;;15.51;75.34
21395;BME280;10858;42.714;23.180;2023-05-09T05:14:26;94734.00;;;16.26;73.23
21395;BME280;10858;42.714;23.180;2023-05-09T05:16:53;94727.84;;;16.33;71.33
21395;BME280;10858;42.714;23.180;2023-05-09T05:19:19;94727.97;;;16.57;71.38
21395;BME280;10858;42.714;23.180;2023-05-09T05:21:45;94729.41;;;17.10;68.59
21395;BME280;10858;42.714;23.180;2023-05-09T05:24:11;94735.53;;;15.94;70.59
21395;BME280;10858;42.714;23.180;2023-05-09T05:26:38;94741.47;;;15.55;73.26
21395;BME280;10858;42.714;23.180;2023-05-09T05:29:04;94735.31;;;15.62;73.84
21395;BME280;10858;42.714;23.180;2023-05-09T05:31:30;94742.28;;;15.38;74.20
21395;BME280;10858;42.714;23.180;2023-05-09T05:33:57;94741.84;;;15.24;75.10
21395;BME280;10858;42.714;23.180;2023-05-09T05:36:23;94730.28;;;15.42;75.12
21395;BME280;10858;42.714;23.180;2023-05-09T05:38:49;94731.53;;;15.29;74.73
21395;BME280;10858;42.714;23.180;2023-05-09T05:41:16;94734.13;;;15.39;75.02
21395;BME280;10858;42.714;23.180;2023-05-09T05:43:42;94743.22;;;15.28;74.78
21395;BME280;10858;42.714;23.180;2023-05-09T05:46:09;94744.31;;;15.79;74.36
21395;BME280;10858;42.714;23.180;2023-05-09T05:48:35;94743.72;;;15.93;73.34
21395;BME280;10858;42.714;23.180;2023-05-09T05:51:01;94743.06;;;16.33;72.62
21395;BME280;10858;42.714;23.180;2023-05-09T05:53:27;94746.31;;;16.94;71.73
21395;BME280;10858;42.714;23.180;2023-05-09T05:55:53;94744.09;;;16.81;70.94
21395;BME280;10858;42.714;23.180;2023-05-09T05:58:20;94741.47;;;17.06;69.23
21395;BME280;10858;42.714;23.180;2023-05-09T06:00:46;94749.03;;;17.18;71.20
21395;BME280;10858;42.714;23.180;2023-05-09T06:03:12;94744.81;;;17.24;67.36
21395;BME280;10858;42.714;23.180;2023-05-09T06:05:43;94743.78;;;16.92;68.91
21395;BME280;10858;42.714;23.180;2023-05-09T06:08:11;94745.34;;;17.19;68.76
21395;BME280;10858;42.714;23.180;2023-05-09T06:10:38;94743.00;;;17.24;67.16
21395;BME280;10858;42.714;23.180;2023-05-09T06:13:04;94741.19;;;17.65;67.09
21395;BME280;10858;42.714;23.180;2023-05-09T06:15:30;94736.81;;;17.64;66.64
21395;BME280;10858;42.714;23.180;2023-05-09T06:17:56;94739.34;;;17.81;64.60
21395;BME280;10858;42.714;23.180;2023-05-09T06:20:23;94744.47;;;18.15;65.37
21395;BME280;10858;42.714;23.180;2023-05-09T06:25:05;94729.34;;;19.00;59.63
21395;BME280;10858;42.714;23.180;2023-05-09T06:27:32;94736.91;;;19.49;59.71
21395;BME280;10858;42.714;23.180;2023-05-09T06:29:58;94751.00;;;18.13;61.85
21395;BME280;10858;42.714;23.180;2023-05-09T06:32:24;94746.16;;;18.00;63.56
21395;BME280;10858;42.714;23.180;2023-05-09T06:34:50;94749.88;;;17.99;63.64
21395;BME280;10858;42.714;23.180;2023-05-09T06:37:17;94747.09;;;18.31;63.09
21395;BME280;10858;42.714;23.180;2023-05-09T06:39:43;94739.34;;;18.44;59.45
21395;BME280;10858;42.714;23.180;2023-05-09T06:42:10;94734.81;;;17.66;61.69
21395;BME280;10858;42.714;23.180;2023-05-09T06:44:36;94743.50;;;17.44;62.43
21395;BME280;10858;42.714;23.180;2023-05-09T06:47:02;94739.84;;;17.61;63.15
21395;BME280;10858;42.714;23.180;2023-05-09T06:49:28;94743.56;;;18.31;63.08
21395;BME280;10858;42.714;23.180;2023-05-09T06:51:54;94742.44;;;18.64;59.51
21395;BME280;10858;42.714;23.180;2023-05-09T06:54:21;94736.97;;;17.70;61.58
21395;BME280;10858;42.714;23.180;2023-05-09T06:56:47;94737.81;;;17.31;64.09
21395;BME280;10858;42.714;23.180;2023-05-09T06:59:13;94733.91;;;18.60;64.16
21395;BME280;10858;42.714;23.180;2023-05-09T07:01:41;94734.59;;;18.54;60.75
21395;BME280;10858;42.714;23.180;2023-05-09T07:04:07;94727.78;;;18.28;61.07
21395;BME280;10858;42.714;23.180;2023-05-09T07:06:33;94729.44;;;17.50;63.91
21395;BME280;10858;42.714;23.180;2023-05-09T07:09:00;94731.94;;;17.43;64.74
21395;BME280;10858;42.714;23.180;2023-05-09T07:11:26;94729.75;;;17.39;64.50
21395;BME280;10858;42.714;23.180;2023-05-09T07:13:52;94728.88;;;16.98;65.18
21395;BME280;10858;42.714;23.180;2023-05-09T07:16:18;94730.09;;;17.36;65.79
21395;BME280;10858;42.714;23.180;2023-05-09T07:18:47;94723.28;;;18.98;61.45
21395;BME280;10858;42.714;23.180;2023-05-09T07:21:13;94731.75;;;19.63;58.30
21395;BME280;10858;42.714;23.180;2023-05-09T07:23:40;94732.56;;;19.18;57.68
21395;BME280;10858;42.714;23.180;2023-05-09T07:26:06;94736.53;;;18.68;59.88
21395;BME280;10858;42.714;23.180;2023-05-09T07:28:32;94734.88;;;18.21;61.25
21395;BME280;10858;42.714;23.180;2023-05-09T07:30:58;94733.78;;;17.35;60.84
21395;BME280;10858;42.714;23.180;2023-05-09T07:33:25;94732.72;;;16.87;63.49
21395;BME280;10858;42.714;23.180;2023-05-09T07:35:51;94731.34;;;16.59;65.52
21395;BME280;10858;42.714;23.180;2023-05-09T07:38:18;94734.53;;;16.29;66.22
21395;BME280;10858;42.714;23.180;2023-05-09T07:40:44;94731.69;;;15.97;67.17
21395;BME280;10858;42.714;23.180;2023-05-09T07:43:10;94735.81;;;15.91;67.04
21395;BME280;10858;42.714;23.180;2023-05-09T07:45:36;94731.06;;;16.03;67.99
21395;BME280;10858;42.714;23.180;2023-05-09T07:48:02;94736.63;;;16.17;67.20
21395;BME280;10858;42.714;23.180;2023-05-09T07:50:29;94732.56;;;16.39;66.65
21395;BME280;10858;42.714;23.180;2023-05-09T07:52:55;94733.22;;;16.33;65.52
21395;BME280;10858;42.714;23.180;2023-05-09T07:55:21;94735.66;;;16.52;66.56
21395;BME280;10858;42.714;23.180;2023-05-09T07:57:48;94736.19;;;16.72;65.81
21395;BME280;10858;42.714;23.180;2023-05-09T08:00:14;94729.50;;;16.68;65.40
21395;BME280;10858;42.714;23.180;2023-05-09T08:02:41;94726.41;;;17.21;64.34
21395;BME280;10858;42.714;23.180;2023-05-09T08:05:08;94730.91;;;17.93;61.91
21395;BME280;10858;42.714;23.180;2023-05-09T08:07:36;94737.28;;;18.00;61.29
21395;BME280;10858;42.714;23.180;2023-05-09T08:10:02;94731.41;;;17.88;61.69
21395;BME280;10858;42.714;23.180;2023-05-09T08:12:29;94732.78;;;17.68;62.54
21395;BME280;10858;42.714;23.180;2023-05-09T08:14:55;94736.69;;;17.49;62.10
21395;BME280;10858;42.714;23.180;2023-05-09T08:17:21;94734.09;;;17.24;63.38
21395;BME280;10858;42.714;23.180;2023-05-09T08:19:47;94739.81;;;17.37;62.95
21395;BME280;10858;42.714;23.180;2023-05-09T08:22:17;94738.16;;;17.60;62.77
21395;BME280;10858;42.714;23.180;2023-05-09T08:24:44;94734.22;;;18.11;63.21
21395;BME280;10858;42.714;23.180;2023-05-09T08:27:12;94736.97;;;18.41;57.77
21395;BME280;10858;42.714;23.180;2023-05-09T08:29:39;94725.31;;;18.96;59.71
21395;BME280;10858;42.714;23.180;2023-05-09T08:32:05;94734.00;;;19.06;58.37
21395;BME280;10858;42.714;23.180;2023-05-09T08:34:32;94730.53;;;19.20;57.51
21395;BME280;10858;42.714;23.180;2023-05-09T08:37:03;94744.06;;;18.81;57.88
21395;BME280;10858;42.714;23.180;2023-05-09T08:39:32;94726.38;;;18.87;58.88
21395;BME280;10858;42.714;23.180;2023-05-09T08:42:01;94732.59;;;18.48;59.12
21395;BME280;10858;42.714;23.180;2023-05-09T08:44:29;94727.91;;;18.50;58.78
21395;BME280;10858;42.714;23.180;2023-05-09T08:46:58;94730.13;;;18.78;59.98
21395;BME280;10858;42.714;23.180;2023-05-09T08:49:25;94722.22;;;19.07;58.57
21395;BME280;10858;42.714;23.180;2023-05-09T08:51:53;94717.31;;;19.10;58.29
21395;BME280;10858;42.714;23.180;2023-05-09T08:54:21;94716.66;;;19.31;57.43
21395;BME280;10858;42.714;23.180;2023-05-09T08:56:48;94722.63;;;19.18;57.44
21395;BME280;10858;42.714;23.180;2023-05-09T08:59:16;94727.31;;;19.70;55.69
21395;BME280;10858;42.714;23.180;2023-05-09T09:01:43;94720.25;;;20.20;54.30
21395;BME280;10858;42.714;23.180;2023-05-09T09:04:09;94736.94;;;20.89;53.66
21395;BME280;10858;42.714;23.180;2023-05-09T09:06:39;94726.53;;;19.61;53.99
21395;BME280;10858;42.714;23.180;2023-05-09T09:09:06;94730.97;;;19.91;55.97
21395;BME280;10858;42.714;23.180;2023-05-09T09:11:36;94728.25;;;20.28;52.37
21395;BME280;10858;42.714;23.180;2023-05-09T09:14:17;94718.56;;;20.49;52.73
21395;BME280;10858;42.714;23.180;2023-05-09T09:16:47;94725.50;;;19.17;52.33
21395;BME280;10858;42.714;23.180;2023-05-09T09:19:16;94719.53;;;18.76;55.22
21395;BME280;10858;42.714;23.180;2023-05-09T09:21:45;94725.22;;;18.42;55.86
21395;BME280;10858;42.714;23.180;2023-05-09T09:24:20;94731.47;;;18.82;54.34
21395;BME280;10858;42.714;23.180;2023-05-09T09:26:48;94724.47;;;18.10;55.10
21395;BME280;10858;42.714;23.180;2023-05-09T09:29:15;94730.66;;;18.18;55.78
21395;BME280;10858;42.714;23.180;2023-05-09T09:31:46;94725.28;;;18.18;56.94
21395;BME280;10858;42.714;23.180;2023-05-09T09:34:19;94720.88;;;18.41;56.02
21395;BME280;10858;42.714;23.180;2023-05-09T09:36:45;94719.91;;;19.04;54.11
21395;BME280;10858;42.714;23.180;2023-05-09T09:39:13;94723.91;;;19.76;53.94
21395;BME280;10858;42.714;23.180;2023-05-09T09:41:40;94729.50;;;19.52;53.83
21395;BME280;10858;42.714;23.180;2023-05-09T09:44:15;94720.16;;;18.55;55.31
21395;BME280;10858;42.714;23.180;2023-05-09T09:46:54;94725.47;;;18.72;55.35
21395;BME280;10858;42.714;23.180;2023-05-09T09:49:25;94722.63;;;18.96;55.39
21395;BME280;10858;42.714;23.180;2023-05-09T09:51:56;94727.91;;;20.46;51.10
21395;BME280;10858;42.714;23.180;2023-05-09T09:54:25;94729.09;;;20.44;52.68
21395;BME280;10858;42.714;23.180;2023-05-09T09:56:52;94721.59;;;20.89;51.74
21395;BME280;10858;42.714;23.180;2023-05-09T09:59:28;94726.41;;;21.86;50.67
21395;BME280;10858;42.714;23.180;2023-05-09T10:02:02;94720.81;;;22.50;45.45
21395;BME280;10858;42.714;23.180;2023-05-09T10:04:30;94722.28;;;22.18;47.60
21395;BME280;10858;42.714;23.180;2023-05-09T10:06:59;94713.34;;;22.52;45.77
21395;BME280;10858;42.714;23.180;2023-05-09T10:09:26;94715.91;;;20.99;47.77
21395;BME280;10858;42.714;23.180;2023-05-09T10:11:54;94703.63;;;19.65;51.24
21395;BME280;10858;42.714;23.180;2023-05-09T10:14:25;94701.91;;;19.27;52.95
21395;BME280;10858;42.714;23.180;2023-05-09T10:16:54;94695.19;;;18.78;53.71
21395;BME280;10858;42.714;23.180;2023-05-09T10:19:22;94695.44;;;19.36;54.31
21395;BME280;10858;42.714;23.180;2023-05-09T10:21:58;94699.25;;;19.64;53.98
21395;BME280;10858;42.714;23.180;2023-05-09T10:24:39;94690.94;;;18.83;55.20
21395;BME280;10858;42.714;23.180;2023-05-09T10:27:10;94694.81;;;18.81;57.31
21395;BME280;10858;42.714;23.180;2023-05-09T10:30:05;94690.25;;;19.12;56.55
21395;BME280;10858;42.714;23.180;2023-05-09T10:35:05;94697.22;;;19.66;52.52
21395;BME280;10858;42.714;23.180;2023-05-09T10:37:32;94692.22;;;20.29;51.92
21395;BME280;10858;42.714;23.180;2023-05-09T10:40:00;94688.81;;;19.46;52.61
21395;BME280;10858;42.714;23.180;2023-05-09T10:42:28;94690.72;;;19.15;55.06
21395;BME280;10858;42.714;23.180;2023-05-09T10:44:56;94694.00;;;20.73;51.88
21395;BME280;10858;42.714;23.180;2023-05-09T10:47:26;94692.56;;;22.25;48.56
21395;BME280;10858;42.714;23.180;2023-05-09T10:49:54;94685.38;;;21.13;49.30
21395;BME280;10858;42.714;23.180;2023-05-09T10:52:21;94691.31;;;21.93;50.88
21395;BME280;10858;42.714;23.180;2023-05-09T10:55:02;94692.88;;;22.09;49.09
21395;BME280;10858;42.714;23.180;2023-05-09T10:57:30;94692.25;;;21.01;48.52
21395;BME280;10858;42.714;23.180;2023-05-09T10:59:57;94683.78;;;20.68;49.59
21395;BME280;10858;42.714;23.180;2023-05-09T11:02:23;94682.84;;;20.76;52.56
21395;BME280;10858;42.714;23.180;2023-05-09T11:05:16;94692.38;;;20.43;49.83
21395;BME280;10858;42.714;23.180;2023-05-09T11:07:43;94687.09;;;20.85;51.77
21395;BME280;10858;42.714;23.180;2023-05-09T11:10:17;94679.16;;;20.98;50.34
21395;BME280;10858;42.714;23.180;2023-05-09T11:12:59;94685.94;;;21.51;48.52
21395;BME280;10858;42.714;23.180;2023-05-09T11:15:26;94679.09;;;21.06;49.10
21395;BME280;10858;42.714;23.180;2023-05-09T11:18:06;94682.03;;;21.11;48.47
21395;BME280;10858;42.714;23.180;2023-05-09T11:20:42;94684.22;;;20.36;51.73
21395;BME280;10858;42.714;23.180;2023-05-09T11:23:09;94684.34;;;21.35;48.47
21395;BME280;10858;42.714;23.180;2023-05-09T11:25:38;94678.44;;;20.54;51.57
21395;BME280;10858;42.714;23.180;2023-05-09T11:28:05;94675.41;;;20.78;48.95
21395;BME280;10858;42.714;23.180;2023-05-09T11:30:41;94675.09;;;21.44;47.80
21395;BME280;10858;42.714;23.180;2023-05-09T11:33:26;94673.13;;;20.96;50.03
21395;BME280;10858;42.714;23.180;2023-05-09T11:36:17;94666.88;;;20.95;49.39
21395;BME280;10858;42.714;23.180;2023-05-09T11:38:48;94681.47;;;21.01;49.08
21395;BME280;10858;42.714;23.180;2023-05-09T11:41:24;94667.75;;;20.60;49.89
21395;BME280;10858;42.714;23.180;2023-05-09T11:43:51;94668.72;;;20.74;50.96
21395;BME280;10858;42.714;23.180;2023-05-09T11:46:18;94672.84;;;20.11;50.71
21395;BME280;10858;42.714;23.180;2023-05-09T11:48:44;94679.44;;;20.09;52.26
21395;BME280;10858;42.714;23.180;2023-05-09T11:51:17;94677.56;;;19.95;52.55
21395;BME280;10858;42.714;23.180;2023-05-09T11:53:44;94684.63;;;19.21;52.90
21395;BME280;10858;42.714;23.180;2023-05-09T11:56:12;94683.59;;;19.22;54.18
21395;BME280;10858;42.714;23.180;2023-05-09T11:58:39;94685.47;;;20.11;51.94
21395;BME280;10858;42.714;23.180;2023-05-09T12:01:06;94682.94;;;19.80;52.52
21395;BME280;10858;42.714;23.180;2023-05-09T12:03:32;94686.59;;;20.16;52.43
21395;BME280;10858;42.714;23.180;2023-05-09T12:05:58;94684.69;;;19.36;51.92
21395;BME280;10858;42.714;23.180;2023-05-09T12:08:25;94686.94;;;19.84;54.00
21395;BME280;10858;42.714;23.180;2023-05-09T12:10:53;94685.66;;;19.43;52.47
21395;BME280;10858;42.714;23.180;2023-05-09T12:13:19;94692.88;;;18.66;53.68
21395;BME280;10858;42.714;23.180;2023-05-09T12:15:45;94683.88;;;18.82;54.68
21395;BME280;10858;42.714;23.180;2023-05-09T12:18:11;94687.69;;;18.65;53.34
21395;BME280;10858;42.714;23.180;2023-05-09T12:23:07;94684.63;;;18.37;55.31
21395;BME280;10858;42.714;23.180;2023-05-09T12:25:34;94691.94;;;18.59;56.07
21395;BME280;10858;42.714;23.180;2023-05-09T12:28:00;94680.78;;;18.71;56.98
21395;BME280;10858;42.714;23.180;2023-05-09T12:30:26;94677.09;;;19.17;54.57
21395;BME280;10858;42.714;23.180;2023-05-09T12:32:53;94678.97;;;19.39;54.38
21395;BME280;10858;42.714;23.180;2023-05-09T12:35:20;94671.00;;;18.78;54.78
21395;BME280;10858;42.714;23.180;2023-05-09T12:37:55;94659.69;;;19.05;54.46
21395;BME280;10858;42.714;23.180;2023-05-09T12:40:23;94656.09;;;19.12;54.19
21395;BME280;10858;42.714;23.180;2023-05-09T12:42:50;94654.38;;;18.97;57.91
21395;BME280;10858;42.714;23.180;2023-05-09T12:45:19;94653.50;;;18.82;55.47
21395;BME280;10858;42.714;23.180;2023-05-09T12:47:50;94653.19;;;18.77;55.85
21395;BME280;10858;42.714;23.180;2023-05-09T12:50:17;94649.75;;;18.29;57.86
21395;BME280;10858;42.714;23.180;2023-05-09T12:52:48;94643.38;;;18.22;58.49
21395;BME280;10858;42.714;23.180;2023-05-09T12:55:14;94651.94;;;18.18;60.23
21395;BME280;10858;42.714;23.180;2023-05-09T12:57:41;94647.91;;;18.60;57.60
21395;BME280;10858;42.714;23.180;2023-05-09T13:00:09;94646.50;;;18.73;57.57
21395;BME280;10858;42.714;23.180;2023-05-09T13:02:38;94651.16;;;18.79;57.53
21395;BME280;10858;42.714;23.180;2023-05-09T13:05:06;94653.56;;;18.35;58.47
21395;BME280;10858;42.714;23.180;2023-05-09T13:07:42;94640.06;;;18.51;59.98
21395;BME280;10858;42.714;23.180;2023-05-09T13:10:13;94641.34;;;17.94;59.79